ESFI weather

CLOSED Knislinge Air Base
Knislinge, Skåne län, Sweden

Public forecast

Using degrees Celsius for public forecast. Weather courtesy of forecast.io.

METAR (pilot weather report)

Closest report is Kristianstad Airport, 16.0 nm (29.7 km) S. Retrieved 2019/07/24 00:20 UTC (0 seconds ago):

ESMK 240020Z AUTO 30004KT 9999 NCD 17/17 Q1019

TAF (pilot weather forecast)

Forecast is more than 12 hours old.

Closest forecast is Kristianstad Airport, 16.0 nm (29.7 km) S. Retrieved 2015/03/18 12:33 UTC (4 years ago):

TAF ESMK 181130Z 1812/1824 13012KT CAVOK